Chemtrans Havel — A8PS8 — position and weather

sailwx.info

Track history (hours):
 
Tides and Currents Weather Stations Pressure Air Temp Water Temp Dewpoint Dewpoint Depression Visibility Wind Speed Wind Dir Waves Ship Positions

Chemtrans Havel

Last reported at 2017-Nov-16 05:04 UTC. Time now 2017-Nov-19 01:09 UTC.
Position N 05°06' W 000°10'.

Length 136 m.

Type: Tanker. MMSI: 636013588.

Date/timePositionNaut miles runAvg speedWind from/ knotsBaromVisibWave heightAir tempDewpointWater temp
2017-Nov-16 05:04N 05°06' W 000°10'111.6
2017-Nov-16 05:00N 05°06' W 000°09'611.6
2017-Nov-16 04:28N 05°08' W 000°04'511.4
2017-Nov-16 04:00N 05°10' E 000°01'611.5
2017-Nov-16 03:30N 05°12' E 000°07'611.8
2017-Nov-16 03:00N 05°14' E 000°12'611.8
2017-Nov-16 02:30N 05°16' E 000°18'611.7
2017-Nov-16 02:00N 05°19' E 000°23'611.7
2017-Nov-16 01:30N 05°21' E 000°29'  
Track history (hours):
 
Tides and Currents Weather Stations Pressure Air Temp Water Temp Dewpoint Dewpoint Depression Visibility Wind Speed Wind Dir Waves Ship Positions

Chemtrans Havel

Last reported at 2017-Nov-16 05:04 UTC. Time now 2017-Nov-19 01:09 UTC.
Position N 05°06' W 000°10'.

Length 136 m.

Type: Tanker. MMSI: 636013588.

Date/timePositionNaut miles runAvg speedWind from/ knotsBaromVisibWave heightAir tempDewpointWater temp
2017-Nov-16 05:04N 05°06' W 000°10'111.6
2017-Nov-16 05:00N 05°06' W 000°09'611.6
2017-Nov-16 04:28N 05°08' W 000°04'511.4
2017-Nov-16 04:00N 05°10' E 000°01'611.5
2017-Nov-16 03:30N 05°12' E 000°07'611.8
2017-Nov-16 03:00N 05°14' E 000°12'611.8
2017-Nov-16 02:30N 05°16' E 000°18'611.7
2017-Nov-16 02:00N 05°19' E 000°23'611.7
2017-Nov-16 01:30N 05°21' E 000°29'  

Dump ship's entire track history